createdAt,value
2018-03-25T00:00:18.271Z,981.15
2018-03-25T00:01:18.365Z,981.17
2018-03-25T00:02:18.453Z,981.16
2018-03-25T00:03:18.538Z,981.14
2018-03-25T00:04:18.628Z,981.12
2018-03-25T00:05:18.714Z,981.12
2018-03-25T00:06:18.801Z,981.13
2018-03-25T00:07:18.890Z,981.09
2018-03-25T00:08:18.975Z,981.17
2018-03-25T00:09:19.061Z,981.18
2018-03-25T00:10:19.149Z,981.19
2018-03-25T00:11:19.235Z,981.15
2018-03-25T00:12:19.328Z,981.21
2018-03-25T00:13:19.416Z,981.25
2018-03-25T00:14:19.522Z,981.23
2018-03-25T00:15:19.616Z,981.25
2018-03-25T00:16:19.698Z,981.24
2018-03-25T00:17:19.787Z,981.22
2018-03-25T00:18:19.874Z,981.20
2018-03-25T00:19:19.951Z,981.19
2018-03-25T00:20:20.054Z,981.16
2018-03-25T00:21:20.152Z,981.16
2018-03-25T00:22:20.232Z,981.15
2018-03-25T00:23:20.321Z,981.20
2018-03-25T00:24:20.412Z,981.21
2018-03-25T00:25:20.497Z,981.22
2018-03-25T00:26:20.589Z,981.21
2018-03-25T00:27:20.670Z,981.25
2018-03-25T00:28:20.754Z,981.27
2018-03-25T00:29:20.838Z,981.24
2018-03-25T00:30:20.927Z,981.25
2018-03-25T00:31:21.020Z,981.24
2018-03-25T00:32:21.101Z,981.25
2018-03-25T00:33:21.180Z,981.27
2018-03-25T00:34:21.273Z,981.25
2018-03-25T00:35:21.366Z,981.28
2018-03-25T00:36:21.458Z,981.27
2018-03-25T00:37:21.543Z,981.29
2018-03-25T00:38:21.638Z,981.26
2018-03-25T00:39:21.730Z,981.31
2018-03-25T00:40:21.816Z,981.33
2018-03-25T00:41:21.918Z,981.30
2018-03-25T00:42:22.068Z,981.32
2018-03-25T00:43:22.091Z,981.31
2018-03-25T00:44:22.180Z,981.33
2018-03-25T00:45:22.265Z,981.33
2018-03-25T00:46:22.355Z,981.35
2018-03-25T00:47:22.444Z,981.34
2018-03-25T00:48:22.533Z,981.30
2018-03-25T00:49:22.618Z,981.32
2018-03-25T00:50:22.704Z,981.31
2018-03-25T00:51:22.794Z,981.33
2018-03-25T00:52:22.889Z,981.34
2018-03-25T00:53:22.977Z,981.33
2018-03-25T00:54:23.067Z,981.29
2018-03-25T00:55:23.183Z,981.35
2018-03-25T00:56:23.264Z,981.30
2018-03-25T00:57:23.327Z,981.32
2018-03-25T00:58:23.409Z,981.27
2018-03-25T00:59:23.504Z,981.32
2018-03-25T01:00:23.587Z,981.32
2018-03-25T01:01:23.678Z,981.29
2018-03-25T01:02:23.762Z,981.29
2018-03-25T01:03:23.857Z,981.28
2018-03-25T01:04:23.947Z,981.28
2018-03-25T01:05:24.034Z,981.28
2018-03-25T01:06:24.125Z,981.31
2018-03-25T01:07:24.215Z,981.34
2018-03-25T01:08:24.303Z,981.28
2018-03-25T01:09:24.390Z,981.28
2018-03-25T01:10:24.475Z,981.27
2018-03-25T01:11:24.561Z,981.24
2018-03-25T01:12:24.650Z,981.26
2018-03-25T01:13:24.738Z,981.25
2018-03-25T01:14:24.881Z,981.23
2018-03-25T01:15:24.916Z,981.19
2018-03-25T01:16:25.004Z,981.22
2018-03-25T01:17:25.092Z,981.22
2018-03-25T01:18:25.179Z,981.16
2018-03-25T01:19:25.278Z,981.14
2018-03-25T01:20:25.357Z,981.19
2018-03-25T01:21:25.445Z,981.14
2018-03-25T01:22:25.533Z,981.15
2018-03-25T01:23:25.621Z,981.16
2018-03-25T01:24:25.708Z,981.16
2018-03-25T01:25:25.795Z,981.18
2018-03-25T01:26:25.884Z,981.17
2018-03-25T01:27:25.975Z,981.13
2018-03-25T01:28:26.063Z,981.10
2018-03-25T01:29:26.150Z,981.14
2018-03-25T01:30:26.240Z,981.17
2018-03-25T01:31:26.332Z,981.12
2018-03-25T01:32:26.418Z,981.14
2018-03-25T01:33:26.503Z,981.12
2018-03-25T01:34:26.594Z,981.14
2018-03-25T01:35:26.681Z,981.11
2018-03-25T01:36:26.767Z,981.16
2018-03-25T01:37:26.853Z,981.15
2018-03-25T01:38:26.944Z,981.16
2018-03-25T01:39:27.035Z,981.18
2018-03-25T01:40:27.121Z,981.21
2018-03-25T01:41:27.208Z,981.24
2018-03-25T01:42:27.296Z,981.24
2018-03-25T01:43:27.394Z,981.25
2018-03-25T01:44:27.478Z,981.24
2018-03-25T01:45:27.570Z,981.22
2018-03-25T01:46:27.661Z,981.21
2018-03-25T01:47:27.746Z,981.24
2018-03-25T01:48:28.378Z,981.26
2018-03-25T01:49:27.917Z,981.25
2018-03-25T01:50:28.003Z,981.28
2018-03-25T01:51:28.089Z,981.25
2018-03-25T01:52:28.183Z,981.26
2018-03-25T01:53:28.318Z,981.27
2018-03-25T01:54:28.360Z,981.25
2018-03-25T01:55:28.437Z,981.23
2018-03-25T01:56:28.524Z,981.21
2018-03-25T01:57:28.612Z,981.20
2018-03-25T01:58:28.709Z,981.17
2018-03-25T01:59:28.791Z,981.19
2018-03-25T02:00:28.882Z,981.19
2018-03-25T02:01:28.972Z,981.21
2018-03-25T02:02:29.065Z,981.18
2018-03-25T02:03:29.158Z,981.17
2018-03-25T02:04:29.244Z,981.17
2018-03-25T02:05:29.331Z,981.22
2018-03-25T02:06:29.420Z,981.17
2018-03-25T02:07:29.511Z,981.17
2018-03-25T02:08:29.598Z,981.20
2018-03-25T02:09:29.686Z,981.16
2018-03-25T02:10:29.773Z,981.13
2018-03-25T02:11:29.860Z,981.14
2018-03-25T02:12:29.945Z,981.13
2018-03-25T02:13:30.032Z,981.14
2018-03-25T02:14:30.129Z,981.11
2018-03-25T02:15:30.216Z,981.12
2018-03-25T02:16:30.310Z,981.14
2018-03-25T02:17:30.393Z,981.12
2018-03-25T02:18:30.483Z,981.12
2018-03-25T02:19:30.571Z,981.13
2018-03-25T02:20:30.661Z,981.10
2018-03-25T02:21:30.750Z,981.13
2018-03-25T02:22:30.838Z,981.14
2018-03-25T02:23:30.928Z,981.12
2018-03-25T02:24:31.014Z,981.13
2018-03-25T02:25:31.101Z,981.14
2018-03-25T02:26:31.185Z,981.11
2018-03-25T02:27:31.276Z,981.11
2018-03-25T02:28:31.403Z,981.13
2018-03-25T02:29:31.492Z,981.11
2018-03-25T02:30:31.582Z,981.13
2018-03-25T02:31:31.667Z,981.12
2018-03-25T02:32:31.754Z,981.14
2018-03-25T02:33:31.882Z,981.10
2018-03-25T02:34:31.938Z,981.11
2018-03-25T02:35:32.028Z,981.11
2018-03-25T02:36:32.124Z,981.10
2018-03-25T02:37:32.220Z,981.09
2018-03-25T02:38:32.303Z,981.11
2018-03-25T02:39:32.395Z,981.12
2018-03-25T02:40:32.484Z,981.12
2018-03-25T02:41:32.571Z,981.15
2018-03-25T02:42:32.658Z,981.12
2018-03-25T02:43:32.747Z,981.12
2018-03-25T02:44:32.838Z,981.15
2018-03-25T02:45:32.926Z,981.14
2018-03-25T02:46:33.031Z,981.17
2018-03-25T02:47:33.096Z,981.15
2018-03-25T02:48:33.183Z,981.17
2018-03-25T02:49:33.267Z,981.18
2018-03-25T02:50:33.356Z,981.22
2018-03-25T02:51:33.448Z,981.19
2018-03-25T02:52:33.536Z,981.18
2018-03-25T02:53:33.615Z,981.17
2018-03-25T02:54:33.704Z,981.18
2018-03-25T02:55:33.792Z,981.17
2018-03-25T02:56:33.877Z,981.17
2018-03-25T02:57:33.963Z,981.18
2018-03-25T02:58:34.053Z,981.15
2018-03-25T02:59:34.139Z,981.16
2018-03-25T03:00:34.227Z,981.15
2018-03-25T03:01:34.322Z,981.15
2018-03-25T03:02:34.409Z,981.15
2018-03-25T03:03:34.487Z,981.19
2018-03-25T03:04:34.647Z,981.23
2018-03-25T03:05:34.662Z,981.20
2018-03-25T03:06:34.752Z,981.20
2018-03-25T03:07:34.842Z,981.21
2018-03-25T03:08:34.933Z,981.21
2018-03-25T03:09:35.026Z,981.24
2018-03-25T03:10:35.126Z,981.20
2018-03-25T03:11:35.215Z,981.24
2018-03-25T03:12:35.303Z,981.25
2018-03-25T03:13:35.389Z,981.27
2018-03-25T03:14:35.478Z,981.26
2018-03-25T03:15:35.563Z,981.29
2018-03-25T03:16:35.651Z,981.29
2018-03-25T03:17:35.737Z,981.28
2018-03-25T03:18:35.824Z,981.30
2018-03-25T03:19:35.911Z,981.32
2018-03-25T03:20:35.996Z,981.31
2018-03-25T03:21:36.084Z,981.29
2018-03-25T03:22:36.173Z,981.29
2018-03-25T03:23:36.256Z,981.34
2018-03-25T03:24:36.346Z,981.40
2018-03-25T03:25:36.431Z,981.40
2018-03-25T03:26:36.521Z,981.37
2018-03-25T03:27:36.609Z,981.35
2018-03-25T03:28:36.701Z,981.38
2018-03-25T03:29:36.787Z,981.36
2018-03-25T03:30:36.882Z,981.38
2018-03-25T03:31:36.963Z,981.38
2018-03-25T03:32:37.048Z,981.43
2018-03-25T03:33:37.137Z,981.43
2018-03-25T03:34:37.223Z,981.43
2018-03-25T03:35:37.302Z,981.40
2018-03-25T03:36:37.391Z,981.40
2018-03-25T03:37:37.480Z,981.44
2018-03-25T03:38:37.565Z,981.44
2018-03-25T03:39:37.652Z,981.42
2018-03-25T03:40:37.737Z,981.49
2018-03-25T03:41:37.818Z,981.48
2018-03-25T03:42:37.912Z,981.50
2018-03-25T03:43:37.998Z,981.48
2018-03-25T03:44:38.088Z,981.50
2018-03-25T03:45:38.178Z,981.51
2018-03-25T03:46:38.263Z,981.51
2018-03-25T03:47:38.350Z,981.48
2018-03-25T03:48:38.439Z,981.55
2018-03-25T03:49:38.535Z,981.52
2018-03-25T03:50:38.619Z,981.50
2018-03-25T03:51:38.706Z,981.51
2018-03-25T03:52:38.791Z,981.50
2018-03-25T03:53:38.888Z,981.51
2018-03-25T03:54:38.975Z,981.47
2018-03-25T03:55:39.063Z,981.49
2018-03-25T03:56:39.158Z,981.50
2018-03-25T03:57:39.240Z,981.51
2018-03-25T03:58:39.330Z,981.52
2018-03-25T03:59:39.416Z,981.56
2018-03-25T04:00:39.497Z,981.55
2018-03-25T04:01:39.584Z,981.55
2018-03-25T04:02:39.670Z,981.57
2018-03-25T04:03:39.758Z,981.54
2018-03-25T04:04:39.844Z,981.57
2018-03-25T04:05:39.935Z,981.55
2018-03-25T04:06:40.020Z,981.59
2018-03-25T04:07:40.107Z,981.56
2018-03-25T04:08:40.192Z,981.56
2018-03-25T04:09:40.282Z,981.59
2018-03-25T04:10:40.367Z,981.57
2018-03-25T04:11:40.462Z,981.57
2018-03-25T04:12:40.538Z,981.58
2018-03-25T04:13:40.624Z,981.57
2018-03-25T04:14:40.710Z,981.60
2018-03-25T04:15:40.800Z,981.60
2018-03-25T04:16:40.891Z,981.59
2018-03-25T04:17:40.980Z,981.58
2018-03-25T04:18:41.064Z,981.62
2018-03-25T04:19:41.155Z,981.59
2018-03-25T04:20:41.240Z,981.60
2018-03-25T04:21:41.331Z,981.59
2018-03-25T04:22:41.419Z,981.60
2018-03-25T04:23:41.505Z,981.59
2018-03-25T04:24:41.591Z,981.61
2018-03-25T04:25:41.685Z,981.63
2018-03-25T04:26:41.771Z,981.60
2018-03-25T04:27:41.860Z,981.62
2018-03-25T04:28:41.946Z,981.61
2018-03-25T04:29:42.034Z,981.61
2018-03-25T04:30:42.132Z,981.60
2018-03-25T04:31:42.221Z,981.62
2018-03-25T04:32:42.299Z,981.62
2018-03-25T04:33:42.382Z,981.59
2018-03-25T04:34:42.475Z,981.60
2018-03-25T04:35:42.565Z,981.60
2018-03-25T04:36:42.661Z,981.62
2018-03-25T04:37:42.751Z,981.65
2018-03-25T04:38:42.839Z,981.66
2018-03-25T04:39:42.928Z,981.66
2018-03-25T04:40:43.015Z,981.68
2018-03-25T04:41:43.104Z,981.68
2018-03-25T04:42:43.187Z,981.68
2018-03-25T04:43:43.277Z,981.70
2018-03-25T04:44:43.361Z,981.71
2018-03-25T04:45:43.449Z,981.74
2018-03-25T04:46:43.535Z,981.71
2018-03-25T04:47:43.629Z,981.69
2018-03-25T04:48:43.710Z,981.70
2018-03-25T04:49:43.800Z,981.69
2018-03-25T04:50:43.883Z,981.75
2018-03-25T04:51:43.980Z,981.74
2018-03-25T04:52:44.059Z,981.75
2018-03-25T04:53:44.148Z,981.74
2018-03-25T04:54:44.232Z,981.78
2018-03-25T04:55:44.314Z,981.78
2018-03-25T04:56:44.398Z,981.77
2018-03-25T04:57:44.485Z,981.73
2018-03-25T04:58:44.572Z,981.74
2018-03-25T04:59:44.660Z,981.74
2018-03-25T05:00:44.750Z,981.75
2018-03-25T05:01:44.831Z,981.73
2018-03-25T05:02:44.915Z,981.73
2018-03-25T05:03:45.002Z,981.76
2018-03-25T05:04:45.087Z,981.73
2018-03-25T05:05:45.178Z,981.70
2018-03-25T05:06:45.266Z,981.75
2018-03-25T05:07:45.343Z,981.75
2018-03-25T05:08:45.436Z,981.74
2018-03-25T05:09:45.563Z,981.78
2018-03-25T05:10:45.613Z,981.76
2018-03-25T05:11:45.702Z,981.75
2018-03-25T05:12:45.789Z,981.78
2018-03-25T05:13:45.905Z,981.82
2018-03-25T05:14:45.966Z,981.82
2018-03-25T05:15:46.052Z,981.79
2018-03-25T05:16:46.138Z,981.84
2018-03-25T05:17:46.228Z,981.80
2018-03-25T05:18:46.310Z,981.79
2018-03-25T05:19:46.395Z,981.85
2018-03-25T05:20:46.489Z,981.85
2018-03-25T05:21:46.575Z,981.88
2018-03-25T05:22:46.662Z,981.86
2018-03-25T05:23:46.750Z,981.92
2018-03-25T05:24:46.841Z,981.92
2018-03-25T05:25:46.931Z,981.97
2018-03-25T05:26:47.015Z,981.95
2018-03-25T05:27:47.108Z,981.94
2018-03-25T05:28:47.195Z,981.95
2018-03-25T05:29:47.283Z,981.96
2018-03-25T05:30:47.365Z,981.97
2018-03-25T05:31:47.452Z,982.02
2018-03-25T05:32:47.542Z,982.02
2018-03-25T05:33:47.629Z,982.01
2018-03-25T05:34:47.714Z,982.03
2018-03-25T05:35:47.804Z,982.01
2018-03-25T05:36:47.889Z,982.03
2018-03-25T05:37:47.977Z,982.03
2018-03-25T05:38:48.063Z,982.03
2018-03-25T05:39:48.156Z,982.02
2018-03-25T05:40:48.244Z,982.00
2018-03-25T05:41:48.328Z,982.09
2018-03-25T05:42:48.421Z,982.05
2018-03-25T05:43:48.502Z,982.06
2018-03-25T05:44:48.591Z,982.10
2018-03-25T05:45:48.677Z,982.07
2018-03-25T05:46:48.768Z,982.08
2018-03-25T05:47:48.855Z,982.13
2018-03-25T05:48:48.948Z,982.11
2018-03-25T05:49:49.046Z,982.14
2018-03-25T05:50:49.133Z,982.10
2018-03-25T05:51:49.218Z,982.12
2018-03-25T05:52:49.305Z,982.15
2018-03-25T05:53:49.396Z,982.13
2018-03-25T05:54:49.478Z,982.17
2018-03-25T05:55:49.574Z,982.19
2018-03-25T05:56:49.656Z,982.20
2018-03-25T05:57:49.748Z,982.25
2018-03-25T05:58:49.835Z,982.24
2018-03-25T05:59:49.923Z,982.27
2018-03-25T06:00:50.013Z,982.27
2018-03-25T06:01:50.100Z,982.27
2018-03-25T06:02:50.198Z,982.28
2018-03-25T06:03:50.291Z,982.29
2018-03-25T06:04:50.384Z,982.28
2018-03-25T06:05:50.472Z,982.29
2018-03-25T06:06:50.561Z,982.31
2018-03-25T06:07:50.651Z,982.27
2018-03-25T06:08:50.739Z,982.28
2018-03-25T06:09:50.820Z,982.31
2018-03-25T06:10:50.907Z,982.32
2018-03-25T06:11:51.016Z,982.35
2018-03-25T06:12:51.102Z,982.34
2018-03-25T06:13:51.188Z,982.36
2018-03-25T06:14:51.277Z,982.35
2018-03-25T06:15:51.379Z,982.37
2018-03-25T06:16:51.444Z,982.38
2018-03-25T06:17:51.531Z,982.36
2018-03-25T06:18:51.630Z,982.38
2018-03-25T06:19:51.706Z,982.38
2018-03-25T06:20:51.807Z,982.42
2018-03-25T06:21:51.879Z,982.41
2018-03-25T06:22:51.975Z,982.43
2018-03-25T06:23:52.051Z,982.45
2018-03-25T06:24:52.136Z,982.46
2018-03-25T06:25:52.227Z,982.45
2018-03-25T06:26:52.316Z,982.44
2018-03-25T06:27:52.416Z,982.49
2018-03-25T06:28:52.506Z,982.50
2018-03-25T06:29:52.593Z,982.54
2018-03-25T06:30:52.680Z,982.54
2018-03-25T06:31:52.770Z,982.50
2018-03-25T06:32:52.867Z,982.49
2018-03-25T06:33:52.950Z,982.54
2018-03-25T06:34:53.034Z,982.58
2018-03-25T06:35:53.136Z,982.56
2018-03-25T06:36:53.195Z,982.57
2018-03-25T06:37:53.285Z,982.58
2018-03-25T06:38:53.371Z,982.61
2018-03-25T06:39:53.472Z,982.61
2018-03-25T06:40:53.547Z,982.56
2018-03-25T06:41:53.639Z,982.62
2018-03-25T06:42:53.730Z,982.61
2018-03-25T06:43:53.817Z,982.63
2018-03-25T06:44:53.901Z,982.59
2018-03-25T06:45:53.993Z,982.55
2018-03-25T06:46:54.078Z,982.59
2018-03-25T06:47:54.169Z,982.60
2018-03-25T06:48:54.255Z,982.56
2018-03-25T06:49:54.344Z,982.58
2018-03-25T06:50:54.429Z,982.64
2018-03-25T06:51:54.524Z,982.64
2018-03-25T06:52:54.614Z,982.64
2018-03-25T06:53:54.709Z,982.65
2018-03-25T06:54:54.803Z,982.68
2018-03-25T06:55:54.892Z,982.72
2018-03-25T06:56:54.979Z,982.71
2018-03-25T06:57:55.072Z,982.75
2018-03-25T06:58:55.170Z,982.77
2018-03-25T06:59:55.257Z,982.71
2018-03-25T07:00:55.349Z,982.77
2018-03-25T07:01:55.488Z,982.75
2018-03-25T07:02:55.540Z,982.77
2018-03-25T07:03:55.626Z,982.78
2018-03-25T07:04:55.712Z,982.78
2018-03-25T07:05:55.800Z,982.78
2018-03-25T07:06:55.886Z,982.75
2018-03-25T07:07:55.983Z,982.79
2018-03-25T07:08:56.069Z,982.87
2018-03-25T07:09:56.163Z,982.85
2018-03-25T07:10:56.252Z,982.88
2018-03-25T07:11:56.342Z,982.88
2018-03-25T07:12:56.435Z,982.90
2018-03-25T07:13:56.523Z,982.86
2018-03-25T07:14:56.615Z,982.88
2018-03-25T07:15:56.706Z,982.91
2018-03-25T07:16:56.793Z,982.90
2018-03-25T07:17:56.885Z,982.89
2018-03-25T07:18:57.045Z,982.88
2018-03-25T07:19:57.086Z,982.92
2018-03-25T07:20:57.176Z,982.95
2018-03-25T07:21:57.268Z,982.90
2018-03-25T07:22:57.357Z,982.92
2018-03-25T07:23:57.447Z,982.92
2018-03-25T07:24:57.531Z,982.94
2018-03-25T07:25:57.619Z,982.92
2018-03-25T07:26:57.712Z,982.97
2018-03-25T07:27:57.805Z,982.97
2018-03-25T07:28:57.895Z,982.99
2018-03-25T07:29:57.991Z,983.01
2018-03-25T07:30:58.083Z,983.03
2018-03-25T07:31:58.182Z,983.02
2018-03-25T07:32:58.266Z,983.04
2018-03-25T07:33:58.407Z,983.03
2018-03-25T07:34:58.449Z,983.04
2018-03-25T07:35:58.543Z,983.01
2018-03-25T07:36:58.637Z,983.05
2018-03-25T07:37:58.721Z,983.06
2018-03-25T07:38:58.810Z,983.05
2018-03-25T07:39:58.900Z,983.05
2018-03-25T07:40:58.986Z,983.08
2018-03-25T07:41:59.991Z,983.08
2018-03-25T07:42:59.206Z,983.07
2018-03-25T07:43:59.332Z,983.06
2018-03-25T07:44:59.405Z,983.11
2018-03-25T07:45:59.484Z,983.15
2018-03-25T07:46:59.577Z,983.18
2018-03-25T07:47:59.669Z,983.17
2018-03-25T07:48:59.759Z,983.15
2018-03-25T07:49:59.906Z,983.17
2018-03-25T07:50:59.942Z,983.15
2018-03-25T07:52:00.025Z,983.18
2018-03-25T07:53:00.107Z,983.15
2018-03-25T07:54:00.199Z,983.17
2018-03-25T07:55:00.294Z,983.14
2018-03-25T07:56:00.387Z,983.14
2018-03-25T07:57:00.472Z,983.16
2018-03-25T07:58:00.566Z,983.19
2018-03-25T07:59:00.656Z,983.21
2018-03-25T08:00:00.754Z,983.17
2018-03-25T08:01:00.841Z,983.23
2018-03-25T08:02:00.935Z,983.24
2018-03-25T08:03:01.057Z,983.24
2018-03-25T08:04:01.147Z,983.22
2018-03-25T08:05:01.242Z,983.25
2018-03-25T08:06:01.336Z,983.24
2018-03-25T08:07:01.495Z,983.24
2018-03-25T08:08:01.512Z,983.19
2018-03-25T08:09:01.604Z,983.22
2018-03-25T08:10:01.689Z,983.25
2018-03-25T08:11:01.772Z,983.25
2018-03-25T08:12:01.866Z,983.25
2018-03-25T08:13:01.940Z,983.24
2018-03-25T08:14:02.058Z,983.24
2018-03-25T08:15:02.152Z,983.28
2018-03-25T08:16:02.270Z,983.25
2018-03-25T08:17:02.351Z,983.26
2018-03-25T08:18:02.438Z,983.24
2018-03-25T08:19:02.532Z,983.27
2018-03-25T08:20:02.623Z,983.27
2018-03-25T08:21:02.717Z,983.28
2018-03-25T08:22:02.811Z,983.23
2018-03-25T08:23:02.902Z,983.31
2018-03-25T08:24:02.994Z,983.27
2018-03-25T08:25:03.086Z,983.28
2018-03-25T08:26:03.176Z,983.25
2018-03-25T08:27:03.269Z,983.25
2018-03-25T08:28:03.358Z,983.26
2018-03-25T08:29:03.448Z,983.27
2018-03-25T08:30:03.538Z,983.30
2018-03-25T08:31:03.629Z,983.28
2018-03-25T08:32:03.730Z,983.26
2018-03-25T08:33:03.808Z,983.29
2018-03-25T08:34:03.900Z,983.30
2018-03-25T08:35:03.992Z,983.31
2018-03-25T08:36:04.085Z,983.33
2018-03-25T08:37:04.180Z,983.30
2018-03-25T08:38:04.270Z,983.29
2018-03-25T08:39:04.358Z,983.34
2018-03-25T08:40:04.453Z,983.33
2018-03-25T08:41:04.549Z,983.33
2018-03-25T08:42:04.637Z,983.32
2018-03-25T08:43:04.728Z,983.37
2018-03-25T08:44:04.821Z,983.35
2018-03-25T08:45:04.927Z,983.39
2018-03-25T08:46:05.014Z,983.35
2018-03-25T08:47:05.109Z,983.38
2018-03-25T08:48:05.206Z,983.38
2018-03-25T08:49:05.300Z,983.36
2018-03-25T08:50:05.394Z,983.38
2018-03-25T08:51:05.493Z,983.38
2018-03-25T08:52:05.586Z,983.40
2018-03-25T08:53:05.673Z,983.36
2018-03-25T08:54:05.770Z,983.35
2018-03-25T08:55:05.861Z,983.34
2018-03-25T08:56:05.949Z,983.34
2018-03-25T08:57:06.049Z,983.36
2018-03-25T08:58:06.138Z,983.37
2018-03-25T08:59:06.234Z,983.39
2018-03-25T09:00:06.322Z,983.38
2018-03-25T09:01:06.418Z,983.40
2018-03-25T09:02:06.507Z,983.40
2018-03-25T09:03:06.601Z,983.38
2018-03-25T09:04:06.695Z,983.41
2018-03-25T09:05:06.787Z,983.42
2018-03-25T09:06:06.878Z,983.41
2018-03-25T09:07:06.975Z,983.37
2018-03-25T09:08:07.068Z,983.35
2018-03-25T09:09:07.158Z,983.33
2018-03-25T09:10:07.252Z,983.31
2018-03-25T09:11:07.343Z,983.30
2018-03-25T09:12:07.426Z,983.28
2018-03-25T09:13:07.516Z,983.30
2018-03-25T09:14:07.607Z,983.32
2018-03-25T09:15:07.697Z,983.30
2018-03-25T09:16:07.787Z,983.32
2018-03-25T09:17:07.875Z,983.30
2018-03-25T09:18:07.972Z,983.33
2018-03-25T09:19:08.067Z,983.30
2018-03-25T09:20:08.159Z,983.33
2018-03-25T09:21:08.256Z,983.29
2018-03-25T09:22:08.368Z,983.35
2018-03-25T09:23:08.443Z,983.33
2018-03-25T09:24:08.533Z,983.38
2018-03-25T09:25:08.624Z,983.35
2018-03-25T09:26:08.718Z,983.36
2018-03-25T09:27:08.813Z,983.37
2018-03-25T09:28:08.906Z,983.36
2018-03-25T09:29:08.999Z,983.38
2018-03-25T09:30:09.090Z,983.40
2018-03-25T09:31:09.185Z,983.34
2018-03-25T09:32:09.278Z,983.36
2018-03-25T09:33:09.372Z,983.35
2018-03-25T09:34:09.466Z,983.37
2018-03-25T09:35:09.558Z,983.38
2018-03-25T09:36:09.645Z,983.37
2018-03-25T09:37:09.737Z,983.35
2018-03-25T09:38:09.825Z,983.33
2018-03-25T09:39:09.919Z,983.39
2018-03-25T09:40:10.006Z,983.39
2018-03-25T09:41:10.111Z,983.39
2018-03-25T09:42:10.182Z,983.41
2018-03-25T09:43:10.278Z,983.41
2018-03-25T09:44:10.373Z,983.39
2018-03-25T09:45:10.459Z,983.41
2018-03-25T09:46:10.555Z,983.45
2018-03-25T09:47:10.649Z,983.43
2018-03-25T09:48:10.737Z,983.43
2018-03-25T09:49:10.829Z,983.39
2018-03-25T09:50:10.921Z,983.39
2018-03-25T09:51:11.047Z,983.42
2018-03-25T09:52:11.110Z,983.42
2018-03-25T09:53:11.204Z,983.41
2018-03-25T09:54:11.296Z,983.39
2018-03-25T09:55:11.374Z,983.41
2018-03-25T09:56:11.472Z,983.42
2018-03-25T09:57:11.569Z,983.42
2018-03-25T09:58:11.664Z,983.40
2018-03-25T09:59:11.759Z,983.41
2018-03-25T10:00:11.851Z,983.40
2018-03-25T10:01:11.952Z,983.40
2018-03-25T10:02:12.037Z,983.44
2018-03-25T10:03:12.133Z,983.42
2018-03-25T10:04:12.227Z,983.39
2018-03-25T10:05:12.326Z,983.41
2018-03-25T10:06:12.415Z,983.38
2018-03-25T10:07:12.508Z,983.37
2018-03-25T10:08:12.600Z,983.39
2018-03-25T10:09:12.697Z,983.40
2018-03-25T10:10:12.788Z,983.41
2018-03-25T10:11:12.895Z,983.37
2018-03-25T10:12:12.991Z,983.40
2018-03-25T10:13:13.083Z,983.40
2018-03-25T10:14:13.176Z,983.41
2018-03-25T10:15:13.269Z,983.41
2018-03-25T10:16:13.362Z,983.39
2018-03-25T10:17:13.455Z,983.39
2018-03-25T10:18:13.546Z,983.42
2018-03-25T10:19:13.640Z,983.36
2018-03-25T10:20:13.724Z,983.41
2018-03-25T10:21:13.806Z,983.38
2018-03-25T10:22:13.901Z,983.36
2018-03-25T10:23:13.992Z,983.44
2018-03-25T10:24:14.083Z,983.44
2018-03-25T10:25:14.965Z,983.43
2018-03-25T10:26:14.333Z,983.43
2018-03-25T10:27:14.430Z,983.44
2018-03-25T10:28:14.527Z,983.39
2018-03-25T10:29:14.625Z,983.41
2018-03-25T10:30:14.717Z,983.37
2018-03-25T10:31:14.809Z,983.41
2018-03-25T10:32:14.907Z,983.41
2018-03-25T10:33:15.003Z,983.36
2018-03-25T10:34:15.100Z,983.39
2018-03-25T10:35:15.194Z,983.41
2018-03-25T10:36:15.289Z,983.40
2018-03-25T10:37:15.382Z,983.37
2018-03-25T10:38:15.478Z,983.37
2018-03-25T10:39:15.572Z,983.35
2018-03-25T10:40:15.666Z,983.39
2018-03-25T10:41:15.762Z,983.37
2018-03-25T10:42:15.854Z,983.37
2018-03-25T10:43:15.950Z,983.38
2018-03-25T10:44:16.047Z,983.38
2018-03-25T10:45:16.339Z,983.36
2018-03-25T10:46:16.213Z,983.35
2018-03-25T10:47:16.305Z,983.39
2018-03-25T10:48:16.403Z,983.36
2018-03-25T10:49:16.497Z,983.37
2018-03-25T10:50:16.593Z,983.38
2018-03-25T10:51:16.687Z,983.37
2018-03-25T10:52:16.782Z,983.33
2018-03-25T10:53:16.874Z,983.32
2018-03-25T10:54:16.971Z,983.31
2018-03-25T10:55:17.070Z,983.33
2018-03-25T10:56:17.166Z,983.30
2018-03-25T10:57:17.257Z,983.34
2018-03-25T10:58:17.353Z,983.34
2018-03-25T10:59:17.449Z,983.34
2018-03-25T11:00:17.548Z,983.34
2018-03-25T11:01:17.643Z,983.36
2018-03-25T11:02:17.739Z,983.35
2018-03-25T11:03:17.837Z,983.34
2018-03-25T11:04:17.930Z,983.38
2018-03-25T11:05:18.025Z,983.39
2018-03-25T11:06:18.124Z,983.38
2018-03-25T11:07:18.223Z,983.35
2018-03-25T11:08:18.321Z,983.41
2018-03-25T11:09:18.412Z,983.40
2018-03-25T11:10:18.510Z,983.40
2018-03-25T11:11:18.602Z,983.38
2018-03-25T11:12:18.699Z,983.36
2018-03-25T11:13:18.795Z,983.32
2018-03-25T11:14:18.898Z,983.37
2018-03-25T11:15:18.998Z,983.38
2018-03-25T11:16:19.098Z,983.34
2018-03-25T11:17:19.191Z,983.34
2018-03-25T11:18:19.274Z,983.33
2018-03-25T11:19:19.371Z,983.33
2018-03-25T11:20:19.466Z,983.35
2018-03-25T11:21:19.562Z,983.32
2018-03-25T11:22:19.673Z,983.35
2018-03-25T11:23:19.752Z,983.37
2018-03-25T11:24:19.848Z,983.33
2018-03-25T11:25:19.947Z,983.38
2018-03-25T11:26:20.050Z,983.33
2018-03-25T11:27:20.137Z,983.34
2018-03-25T11:28:20.232Z,983.32
2018-03-25T11:29:20.343Z,983.29
2018-03-25T11:30:20.432Z,983.35
2018-03-25T11:31:20.527Z,983.33
2018-03-25T11:32:20.623Z,983.39
2018-03-25T11:33:20.720Z,983.37
2018-03-25T11:34:20.835Z,983.31
2018-03-25T11:35:20.922Z,983.32
2018-03-25T11:36:21.065Z,983.34
2018-03-25T11:37:21.167Z,983.30
2018-03-25T11:38:21.307Z,983.34
2018-03-25T11:39:21.263Z,983.31
2018-03-25T11:40:21.385Z,983.29
2018-03-25T11:41:21.454Z,983.30
2018-03-25T11:42:21.536Z,983.30
2018-03-25T11:43:21.622Z,983.29
2018-03-25T11:44:21.748Z,983.31
2018-03-25T11:45:21.855Z,983.30
2018-03-25T11:46:21.910Z,983.31
2018-03-25T11:47:21.978Z,983.33
2018-03-25T11:48:22.076Z,983.31
2018-03-25T11:49:22.220Z,983.30
2018-03-25T11:50:22.281Z,983.27
2018-03-25T11:51:22.369Z,983.31
2018-03-25T11:52:22.455Z,983.28
2018-03-25T11:53:22.588Z,983.30
2018-03-25T11:54:22.640Z,983.29
2018-03-25T11:55:22.724Z,983.24
2018-03-25T11:56:22.832Z,983.27
2018-03-25T11:57:22.902Z,983.29
2018-03-25T11:58:23.014Z,983.26
2018-03-25T11:59:23.115Z,983.29
2018-03-25T12:00:23.206Z,983.27
2018-03-25T12:01:23.286Z,983.28
2018-03-25T12:02:23.399Z,983.25
2018-03-25T12:03:23.483Z,983.27
2018-03-25T12:04:23.585Z,983.27
2018-03-25T12:05:23.682Z,983.28
2018-03-25T12:06:23.782Z,983.28
2018-03-25T12:07:23.867Z,983.25
2018-03-25T12:08:23.960Z,983.26
2018-03-25T12:09:24.043Z,983.27
2018-03-25T12:10:24.198Z,983.26
2018-03-25T12:11:24.294Z,983.27
2018-03-25T12:12:24.389Z,983.31
2018-03-25T12:13:24.497Z,983.25
2018-03-25T12:14:24.600Z,983.25
2018-03-25T12:15:24.678Z,983.25
2018-03-25T12:16:24.800Z,983.28
2018-03-25T12:17:24.875Z,983.25
2018-03-25T12:18:24.977Z,983.30
2018-03-25T12:19:25.093Z,983.23
2018-03-25T12:20:25.176Z,983.24
2018-03-25T12:21:25.252Z,983.16
2018-03-25T12:22:25.353Z,983.20
2018-03-25T12:23:25.450Z,983.19
2018-03-25T12:24:25.540Z,983.20
2018-03-25T12:25:25.620Z,983.19
2018-03-25T12:26:25.731Z,983.22
2018-03-25T12:27:25.837Z,983.20
2018-03-25T12:28:25.931Z,983.17
2018-03-25T12:29:26.029Z,983.17